sensor_id;sensor_type;location;lat;lon;timestamp;pressure;altitude;pressure_sealevel;temperature;humidity
62980;BME280;49075;53.988;27.678;2024-01-25T18:24:10;972.1;;;-0.1;79.3
62980;BME280;49075;53.988;27.678;2024-01-25T18:28:52;972.2;;;-0.1;79.3
62980;BME280;49075;53.988;27.678;2024-01-25T18:33:52;972.3;;;-0.1;79.4
62980;BME280;49075;53.988;27.678;2024-01-25T18:39:18;972.4;;;-0.1;79.5
62980;BME280;49075;53.988;27.678;2024-01-25T18:44:20;972.4;;;-0.2;79.6
62980;BME280;49075;53.988;27.678;2024-01-25T18:49:12;972.5;;;-0.1;79.6
62980;BME280;49075;53.988;27.678;2024-01-25T18:53:53;972.5;;;-0.1;79.6
62980;BME280;49075;53.988;27.678;2024-01-25T18:59:00;972.6;;;-0.1;79.6
62980;BME280;49075;53.988;27.678;2024-01-25T19:03:52;972.7;;;-0.1;79.5
62980;BME280;49075;53.988;27.678;2024-01-25T19:09:12;972.7;;;0;79.5
62980;BME280;49075;53.988;27.678;2024-01-25T19:13:52;972.8;;;0;79.4
62980;BME280;49075;53.988;27.678;2024-01-25T19:18:52;972.9;;;0;79.4
62980;BME280;49075;53.988;27.678;2024-01-25T19:23:52;973;;;0;79.3
62980;BME280;49075;53.988;27.678;2024-01-25T19:29:32;973.1;;;0;79.5
62980;BME280;49075;53.988;27.678;2024-01-25T19:33:52;973.2;;;0.1;79.4
62980;BME280;49075;53.988;27.678;2024-01-25T19:39:14;973.2;;;0.2;79.3
62980;BME280;49075;53.988;27.678;2024-01-25T19:43:52;973.3;;;0.2;79.2
62980;BME280;49075;53.988;27.678;2024-01-25T19:49:20;973.3;;;0.2;79.2
62980;BME280;49075;53.988;27.678;2024-01-25T19:54:02;973.4;;;0.2;79.1
62980;BME280;49075;53.988;27.678;2024-01-25T19:59:10;973.5;;;0.2;79.3
62980;BME280;49075;53.988;27.678;2024-01-25T20:04:10;973.6;;;0.1;79.3
62980;BME280;49075;53.988;27.678;2024-01-25T20:09:20;973.6;;;0.2;79.3
62980;BME280;49075;53.988;27.678;2024-01-25T20:14:30;973.7;;;0.1;79.3
62980;BME280;49075;53.988;27.678;2024-01-25T20:19:20;973.7;;;0.2;79.3
62980;BME280;49075;53.988;27.678;2024-01-25T20:24:02;973.8;;;0.2;79.1
62980;BME280;49075;53.988;27.678;2024-01-25T20:28:52;973.8;;;0.2;79.4
62980;BME280;49075;53.988;27.678;2024-01-25T20:33:52;973.9;;;0.1;79.4
62980;BME280;49075;53.988;27.678;2024-01-25T20:39:12;974;;;0.1;79.6
62980;BME280;49075;53.988;27.678;2024-01-25T20:44:02;974;;;0;79.8
62980;BME280;49075;53.988;27.678;2024-01-25T20:49:00;974;;;-0.1;80.3
62980;BME280;49075;53.988;27.678;2024-01-25T20:53:52;974.1;;;-0.1;80.5
62980;BME280;49075;53.988;27.678;2024-01-25T20:59:02;974.2;;;-0.2;80.9
62980;BME280;49075;53.988;27.678;2024-01-25T21:04:18;974.3;;;-0.2;81
62980;BME280;49075;53.988;27.678;2024-01-25T21:14:02;974.4;;;-0.1;81
62980;BME280;49075;53.988;27.678;2024-01-25T21:19:14;974.5;;;0.2;80.1
62980;BME280;49075;53.988;27.678;2024-01-25T21:24:10;974.5;;;0;80.7
62980;BME280;49075;53.988;27.678;2024-01-25T21:28:52;974.6;;;0;80.7
62980;BME280;49075;53.988;27.678;2024-01-25T21:33:52;974.7;;;-0.1;80.8
62980;BME280;49075;53.988;27.678;2024-01-25T21:38:52;974.7;;;-0.1;80.9
62980;BME280;49075;53.988;27.678;2024-01-25T21:44:20;974.8;;;-0.1;80.9
62980;BME280;49075;53.988;27.678;2024-01-25T21:49:10;974.8;;;0;80.8
62980;BME280;49075;53.988;27.678;2024-01-25T21:53:52;974.9;;;0.1;80.5
62980;BME280;49075;53.988;27.678;2024-01-25T21:59:20;975;;;0;80.6
62980;BME280;49075;53.988;27.678;2024-01-25T22:04:02;975.1;;;0.1;80.5
62980;BME280;49075;53.988;27.678;2024-01-25T22:09:42;975.2;;;0.1;80.5
62980;BME280;49075;53.988;27.678;2024-01-25T22:14:32;975.2;;;0.1;80.4
62980;BME280;49075;53.988;27.678;2024-01-25T22:19:20;975.3;;;0.1;80.3
62980;BME280;49075;53.988;27.678;2024-01-25T22:23:52;975.4;;;0.1;80.4
62980;BME280;49075;53.988;27.678;2024-01-25T22:28:52;975.4;;;0;80.6
62980;BME280;49075;53.988;27.678;2024-01-25T22:33:52;975.5;;;-0.1;80.8
62980;BME280;49075;53.988;27.678;2024-01-25T22:39:00;975.6;;;-0.1;80.9
62980;BME280;49075;53.988;27.678;2024-01-25T22:43:52;975.7;;;-0.2;81
62980;BME280;49075;53.988;27.678;2024-01-25T22:48:52;975.8;;;-0.2;81
62980;BME280;49075;53.988;27.678;2024-01-25T22:54:02;975.8;;;-0.2;80.8
62980;BME280;49075;53.988;27.678;2024-01-25T22:58:52;975.8;;;-0.2;80.9
62980;BME280;49075;53.988;27.678;2024-01-25T23:04:02;975.9;;;-0.2;80.9
62980;BME280;49075;53.988;27.678;2024-01-25T23:09:32;976;;;-0.2;80.8
62980;BME280;49075;53.988;27.678;2024-01-25T23:14:10;976.1;;;-0.2;80.9
62980;BME280;49075;53.988;27.678;2024-01-25T23:18:52;976.2;;;-0.1;80.5
62980;BME280;49075;53.988;27.678;2024-01-25T23:24:10;976.2;;;-0.2;80.7
62980;BME280;49075;53.988;27.678;2024-01-25T23:28:52;976.4;;;-0.3;81
62980;BME280;49075;53.988;27.678;2024-01-25T23:33:52;976.5;;;-0.3;81.2
62980;BME280;49075;53.988;27.678;2024-01-25T23:39:02;976.6;;;-0.4;81.5
62980;BME280;49075;53.988;27.678;2024-01-25T23:44:02;976.6;;;-0.4;81.3
62980;BME280;49075;53.988;27.678;2024-01-25T23:49:12;976.7;;;-0.3;81.2
62980;BME280;49075;53.988;27.678;2024-01-25T23:54:02;976.8;;;-0.4;81.4
62980;BME280;49075;53.988;27.678;2024-01-25T23:59:22;976.9;;;-0.5;81.4
